Time,TemperatureF,DewpointF,PressureIn,WindDirection,WindDirectionDegrees,WindSpeedMPH,WindSpeedGustMPH,Humidity,HourlyPrecipIn,Conditions,Clouds,dailyrainin,SolarRadiationWatts/m^2,SoftwareType,DateUTC
2013-02-04 00:03:00,27.0,19.0,-100.00,NW,309,10.0,29.0,70,0.00,,,0.00,0.000000,,2013-02-04 05:03:00,
2013-02-04 00:10:00,25.0,17.0,-100.00,NW,321,12.0,29.0,70,0.00,,,0.00,0.000000,,2013-02-04 05:10:00,
2013-02-04 00:33:00,25.0,17.0,-100.00,NW,321,12.0,29.0,70,0.00,,,0.00,0.000000,,2013-02-04 05:33:00,
2013-02-04 00:42:00,25.0,17.0,-100.00,NW,321,12.0,29.0,70,0.00,,,0.00,0.000000,,2013-02-04 05:42:00,
2013-02-04 00:52:00,25.0,17.0,-100.00,NW,321,12.0,29.0,70,0.00,,,0.00,0.000000,,2013-02-04 05:52:00,
2013-02-04 01:02:00,25.0,17.0,-100.00,NW,321,12.0,29.0,70,0.00,,,0.00,0.000000,,2013-02-04 06:02:00,
2013-02-04 01:10:00,24.0,17.0,-100.00,NW,315,12.0,27.0,74,0.00,,,0.00,0.000000,,2013-02-04 06:10:00,
2013-02-04 01:32:00,24.0,17.0,-100.00,NW,315,12.0,27.0,74,0.00,,,0.00,0.000000,,2013-02-04 06:32:00,
2013-02-04 01:42:00,24.0,17.0,-100.00,NW,315,12.0,27.0,74,0.00,,,0.00,0.000000,,2013-02-04 06:42:00,
2013-02-04 01:52:00,24.0,17.0,-100.00,NW,315,12.0,27.0,74,0.00,,,0.00,0.000000,,2013-02-04 06:52:00,
2013-02-04 02:02:00,24.0,17.0,-100.00,NW,315,12.0,27.0,74,0.00,,,0.00,0.000000,,2013-02-04 07:02:00,
2013-02-04 02:10:00,23.0,16.0,-100.00,NW,317,15.0,27.0,74,0.00,,,0.00,0.000000,,2013-02-04 07:10:00,
2013-02-04 02:32:00,23.0,16.0,-100.00,NW,317,15.0,27.0,74,0.00,,,0.00,0.000000,,2013-02-04 07:32:00,
2013-02-04 02:42:00,23.0,16.0,-100.00,NW,317,15.0,27.0,74,0.00,,,0.00,0.000000,,2013-02-04 07:42:00,
2013-02-04 02:52:00,23.0,16.0,-100.00,NW,317,15.0,27.0,74,0.00,,,0.00,0.000000,,2013-02-04 07:52:00,
2013-02-04 03:01:00,23.0,16.0,-100.00,NW,317,15.0,27.0,74,0.00,,,0.00,0.000000,,2013-02-04 08:01:00,
2013-02-04 03:10:00,23.0,15.0,-100.00,WNW,302,12.0,30.0,72,0.00,,,-99.99,0.000000,,2013-02-04 08:10:00,
2013-02-04 03:42:00,23.0,15.0,-100.00,WNW,302,12.0,30.0,72,0.00,,,-99.99,0.000000,,2013-02-04 08:42:00,
2013-02-04 03:52:00,23.0,15.0,-100.00,WNW,302,12.0,30.0,72,0.00,,,-99.99,0.000000,,2013-02-04 08:52:00,
2013-02-04 04:02:00,23.0,15.0,-100.00,WNW,302,12.0,30.0,72,0.00,,,-99.99,0.000000,,2013-02-04 09:02:00,
2013-02-04 04:10:00,23.0,15.0,-100.00,NW,304,8.0,17.0,72,0.00,,,0.00,0.000000,,2013-02-04 09:10:00,
2013-02-04 04:42:00,23.0,15.0,-100.00,NW,304,8.0,17.0,72,0.00,,,0.00,0.000000,,2013-02-04 09:42:00,
2013-02-04 04:52:00,23.0,15.0,-100.00,NW,304,8.0,17.0,72,0.00,,,0.00,0.000000,,2013-02-04 09:52:00,
2013-02-04 05:02:00,23.0,15.0,-100.00,NW,304,8.0,17.0,72,0.00,,,0.00,0.000000,,2013-02-04 10:02:00,
2013-02-04 05:10:00,22.0,13.0,-100.00,NW,313,6.0,20.0,68,0.00,,,0.00,0.000000,,2013-02-04 10:10:00,
2013-02-04 05:42:00,22.0,13.0,-100.00,NW,313,6.0,20.0,68,0.00,,,0.00,0.000000,,2013-02-04 10:42:00,
2013-02-04 05:52:00,22.0,13.0,-100.00,NW,313,6.0,20.0,68,0.00,,,0.00,0.000000,,2013-02-04 10:52:00,
2013-02-04 06:02:00,22.0,13.0,-100.00,NW,313,6.0,20.0,68,0.00,,,0.00,0.000000,,2013-02-04 11:02:00,
2013-02-04 06:10:00,21.0,13.0,-100.00,West,276,6.0,13.0,72,0.00,,,0.00,0.000000,,2013-02-04 11:10:00,
2013-02-04 06:33:00,21.0,13.0,-100.00,West,276,6.0,13.0,72,0.00,,,0.00,0.000000,,2013-02-04 11:33:00,
2013-02-04 06:42:00,21.0,13.0,-100.00,West,276,6.0,13.0,72,0.00,,,0.00,0.000000,,2013-02-04 11:42:00,
2013-02-04 06:52:00,21.0,13.0,-100.00,West,276,6.0,13.0,72,0.00,,,0.00,0.000000,,2013-02-04 11:52:00,
2013-02-04 07:02:00,21.0,13.0,-100.00,West,276,6.0,13.0,72,0.00,,,0.00,0.000000,,2013-02-04 12:02:00,
2013-02-04 07:10:00,19.0,11.0,-100.00,SSW,199,2.0,6.0,72,0.00,,,0.00,0.000000,,2013-02-04 12:10:00,
2013-02-04 07:33:00,19.0,11.0,-100.00,SSW,199,2.0,6.0,72,0.00,,,0.00,0.000000,,2013-02-04 12:33:00,
2013-02-04 07:42:00,19.0,11.0,-100.00,SSW,199,2.0,6.0,72,0.00,,,0.00,0.000000,,2013-02-04 12:42:00,
2013-02-04 07:53:00,19.0,11.0,-100.00,SSW,199,2.0,6.0,72,0.00,,,0.00,0.000000,,2013-02-04 12:53:00,
2013-02-04 08:03:00,19.0,11.0,-100.00,SSW,199,2.0,6.0,72,0.00,,,0.00,0.000000,,2013-02-04 13:03:00,
2013-02-04 08:10:00,22.0,16.0,-100.00,SE,135,2.0,9.0,78,0.00,,,0.00,0.000000,,2013-02-04 13:10:00,
2013-02-04 08:33:00,22.0,16.0,-100.00,SE,135,2.0,9.0,78,0.00,,,0.00,0.000000,,2013-02-04 13:33:00,
2013-02-04 08:42:00,22.0,16.0,-100.00,SE,135,2.0,9.0,78,0.00,,,0.00,0.000000,,2013-02-04 13:42:00,
2013-02-04 08:52:00,22.0,16.0,-100.00,SE,135,2.0,9.0,78,0.00,,,0.00,0.000000,,2013-02-04 13:52:00,
2013-02-04 09:03:00,22.0,16.0,-100.00,SE,135,2.0,9.0,78,0.00,,,0.00,0.000000,,2013-02-04 14:03:00,
2013-02-04 09:10:00,24.0,16.0,-100.00,NNE,26,5.0,9.0,72,0.00,,,0.00,7.000000,,2013-02-04 14:10:00,
2013-02-04 09:33:00,24.0,16.0,-100.00,NNE,26,5.0,9.0,72,0.00,,,0.00,7.000000,,2013-02-04 14:33:00,
2013-02-04 09:42:00,24.0,16.0,-100.00,NNE,26,5.0,9.0,72,0.00,,,0.00,7.000000,,2013-02-04 14:42:00,
2013-02-04 09:53:00,24.0,16.0,-100.00,NNE,26,5.0,9.0,72,0.00,,,0.00,7.000000,,2013-02-04 14:53:00,
2013-02-04 10:03:00,24.0,16.0,-100.00,NNE,26,5.0,9.0,72,0.00,,,0.00,7.000000,,2013-02-04 15:03:00,
2013-02-04 10:10:00,27.0,18.0,-100.00,SE,128,1.0,5.0,67,0.00,,,0.00,42.000000,,2013-02-04 15:10:00,
2013-02-04 10:33:00,27.0,18.0,-100.00,SE,128,1.0,5.0,67,0.00,,,0.00,42.000000,,2013-02-04 15:33:00,
2013-02-04 10:43:00,27.0,18.0,-100.00,SE,128,1.0,5.0,67,0.00,,,0.00,42.000000,,2013-02-04 15:43:00,
2013-02-04 10:53:00,27.0,18.0,-100.00,SE,128,1.0,5.0,67,0.00,,,0.00,42.000000,,2013-02-04 15:53:00,
2013-02-04 11:03:00,27.0,18.0,-100.00,SE,128,1.0,5.0,67,0.00,,,0.00,42.000000,,2013-02-04 16:03:00,
2013-02-04 12:10:00,37.0,20.0,-100.00,East,100,1.0,8.0,49,-99.99,,,0.00,186.000000,,2013-02-04 17:10:00,
2013-02-04 12:42:00,37.0,20.0,-100.00,East,100,1.0,8.0,49,-99.99,,,0.00,186.000000,,2013-02-04 17:42:00,
2013-02-04 12:52:00,37.0,20.0,-100.00,East,100,1.0,8.0,49,-99.99,,,0.00,186.000000,,2013-02-04 17:52:00,
2013-02-04 13:03:00,37.0,20.0,-100.00,East,100,1.0,8.0,49,-99.99,,,0.00,186.000000,,2013-02-04 18:03:00,
2013-02-04 13:10:00,39.0,18.0,-100.00,West,260,3.0,15.0,43,0.00,,,0.00,234.000000,,2013-02-04 18:10:00,
2013-02-04 13:33:00,39.0,18.0,-100.00,West,260,3.0,15.0,43,0.00,,,0.00,234.000000,,2013-02-04 18:33:00,
2013-02-04 13:42:00,39.0,18.0,-100.00,West,260,3.0,15.0,43,0.00,,,0.00,234.000000,,2013-02-04 18:42:00,
2013-02-04 13:52:00,39.0,18.0,-100.00,West,260,3.0,15.0,43,0.00,,,0.00,234.000000,,2013-02-04 18:52:00,
2013-02-04 14:02:00,39.0,18.0,-100.00,West,260,3.0,15.0,43,0.00,,,0.00,234.000000,,2013-02-04 19:02:00,
2013-02-04 14:10:00,39.0,19.0,-100.00,WSW,242,5.0,17.0,44,0.00,,,0.00,291.000000,,2013-02-04 19:10:00,
2013-02-04 14:42:00,39.0,19.0,-100.00,WSW,242,5.0,17.0,44,0.00,,,0.00,291.000000,,2013-02-04 19:42:00,
2013-02-04 14:52:00,39.0,19.0,-100.00,WSW,242,5.0,17.0,44,0.00,,,0.00,291.000000,,2013-02-04 19:52:00,
2013-02-04 15:02:00,39.0,19.0,-100.00,WSW,242,5.0,17.0,44,0.00,,,0.00,291.000000,,2013-02-04 20:02:00,
2013-02-04 16:10:00,39.0,19.0,-100.00,South,170,8.0,20.0,44,-99.99,,,0.00,161.000000,,2013-02-04 21:10:00,
2013-02-04 16:32:00,39.0,19.0,-100.00,South,170,8.0,20.0,44,-99.99,,,0.00,161.000000,,2013-02-04 21:32:00,
2013-02-04 16:43:00,39.0,19.0,-100.00,South,170,8.0,20.0,44,-99.99,,,0.00,161.000000,,2013-02-04 21:43:00,
2013-02-04 16:52:00,39.0,19.0,-100.00,South,170,8.0,20.0,44,-99.99,,,0.00,161.000000,,2013-02-04 21:52:00,
2013-02-04 17:03:00,39.0,19.0,-100.00,South,170,8.0,20.0,44,-99.99,,,0.00,161.000000,,2013-02-04 22:03:00,
2013-02-04 17:10:00,38.0,17.0,-100.00,South,174,8.0,17.0,42,0.00,,,0.00,74.000000,,2013-02-04 22:10:00,
2013-02-04 17:33:00,38.0,17.0,-100.00,South,174,8.0,17.0,42,0.00,,,0.00,74.000000,,2013-02-04 22:33:00,
2013-02-04 17:42:00,38.0,17.0,-100.00,South,174,8.0,17.0,42,0.00,,,0.00,74.000000,,2013-02-04 22:42:00,
2013-02-04 17:52:00,38.0,17.0,-100.00,South,174,8.0,17.0,42,0.00,,,0.00,74.000000,,2013-02-04 22:52:00,
2013-02-04 18:02:00,38.0,17.0,-100.00,South,174,8.0,17.0,42,0.00,,,0.00,74.000000,,2013-02-04 23:02:00,
2013-02-04 18:10:00,37.0,18.0,-100.00,South,184,6.0,19.0,46,0.00,,,0.00,8.000000,,2013-02-04 23:10:00,
2013-02-04 18:32:00,37.0,18.0,-100.00,South,184,6.0,19.0,46,0.00,,,0.00,8.000000,,2013-02-04 23:32:00,
2013-02-04 18:42:00,37.0,18.0,-100.00,South,184,6.0,19.0,46,0.00,,,0.00,8.000000,,2013-02-04 23:42:00,
2013-02-04 18:53:00,37.0,18.0,-100.00,South,184,6.0,19.0,46,0.00,,,0.00,8.000000,,2013-02-04 23:53:00,
2013-02-04 19:02:00,37.0,18.0,-100.00,South,184,6.0,19.0,46,0.00,,,0.00,8.000000,,2013-02-05 00:02:00,
2013-02-04 19:10:00,34.0,17.0,-100.00,West,277,6.0,14.0,49,0.00,,,0.00,0.000000,,2013-02-05 00:10:00,
2013-02-04 19:42:00,34.0,17.0,-100.00,West,277,6.0,14.0,49,0.00,,,0.00,0.000000,,2013-02-05 00:42:00,
2013-02-04 19:52:00,34.0,17.0,-100.00,West,277,6.0,14.0,49,0.00,,,0.00,0.000000,,2013-02-05 00:52:00,
2013-02-04 20:02:00,34.0,17.0,-100.00,West,277,6.0,14.0,49,0.00,,,0.00,0.000000,,2013-02-05 01:02:00,
2013-02-04 20:10:00,36.0,22.0,-100.00,North,1,3.0,8.0,57,0.00,,,0.00,0.000000,,2013-02-05 01:10:00,
2013-02-04 20:42:00,36.0,22.0,-100.00,North,1,3.0,8.0,57,0.00,,,0.00,0.000000,,2013-02-05 01:42:00,
2013-02-04 20:52:00,36.0,22.0,-100.00,North,1,3.0,8.0,57,0.00,,,0.00,0.000000,,2013-02-05 01:52:00,
2013-02-04 21:02:00,36.0,22.0,-100.00,North,1,3.0,8.0,57,0.00,,,0.00,0.000000,,2013-02-05 02:02:00,
2013-02-04 21:10:00,34.0,20.0,-100.00,SE,134,3.0,9.0,55,0.00,,,0.00,0.000000,,2013-02-05 02:10:00,
2013-02-04 21:32:00,34.0,20.0,-100.00,SE,134,3.0,9.0,55,0.00,,,0.00,0.000000,,2013-02-05 02:32:00,
2013-02-04 21:42:00,34.0,20.0,-100.00,SE,134,3.0,9.0,55,0.00,,,0.00,0.000000,,2013-02-05 02:42:00,
2013-02-04 21:52:00,34.0,20.0,-100.00,SE,134,3.0,9.0,55,0.00,,,0.00,0.000000,,2013-02-05 02:52:00,
2013-02-04 22:02:00,34.0,20.0,-100.00,SE,134,3.0,9.0,55,0.00,,,0.00,0.000000,,2013-02-05 03:02:00,
2013-02-04 22:10:00,33.0,19.0,-100.00,West,263,3.0,8.0,56,0.00,,,0.00,0.000000,,2013-02-05 03:10:00,
2013-02-04 22:32:00,33.0,19.0,-100.00,West,263,3.0,8.0,56,0.00,,,0.00,0.000000,,2013-02-05 03:32:00,
2013-02-04 22:42:00,33.0,19.0,-100.00,West,263,3.0,8.0,56,0.00,,,0.00,0.000000,,2013-02-05 03:42:00,
2013-02-04 22:52:00,33.0,19.0,-100.00,West,263,3.0,8.0,56,0.00,,,0.00,0.000000,,2013-02-05 03:52:00,
2013-02-04 23:01:00,33.0,19.0,-100.00,West,263,3.0,8.0,56,0.00,,,0.00,0.000000,,2013-02-05 04:01:00,
2013-02-04 23:10:00,31.0,18.0,-100.00,ESE,121,3.0,7.0,58,0.00,,,0.00,0.000000,,2013-02-05 04:10:00,
2013-02-04 23:32:00,31.0,18.0,-100.00,ESE,121,3.0,7.0,58,0.00,,,0.00,0.000000,,2013-02-05 04:32:00,
2013-02-04 23:42:00,31.0,18.0,-100.00,ESE,121,3.0,7.0,58,0.00,,,0.00,0.000000,,2013-02-05 04:42:00,
2013-02-04 23:52:00,31.0,18.0,-100.00,ESE,121,3.0,7.0,58,0.00,,,0.00,0.000000,,2013-02-05 04:52:00,